sensor_id;sensor_type;location;lat;lon;timestamp;pressure;altitude;pressure_sealevel;temperature;humidity
57376;BME280;44805;45.048;5.062;2023-03-16T00:00:13;99932.19;;;6.55;54.70
57376;BME280;44805;45.048;5.062;2023-03-16T00:02:40;99931.38;;;6.55;55.66
57376;BME280;44805;45.048;5.062;2023-03-16T00:05:06;99921.38;;;6.60;55.36
57376;BME280;44805;45.048;5.062;2023-03-16T00:07:31;99926.25;;;6.53;55.34
57376;BME280;44805;45.048;5.062;2023-03-16T00:09:58;99930.75;;;6.51;55.65
57376;BME280;44805;45.048;5.062;2023-03-16T00:12:23;99936.00;;;6.40;56.18
57376;BME280;44805;45.048;5.062;2023-03-16T00:14:50;99932.91;;;6.46;55.71
57376;BME280;44805;45.048;5.062;2023-03-16T00:17:17;99929.78;;;6.41;56.22
57376;BME280;44805;45.048;5.062;2023-03-16T00:19:47;99932.41;;;6.29;56.65
57376;BME280;44805;45.048;5.062;2023-03-16T00:22:15;99921.00;;;6.30;57.15
57376;BME280;44805;45.048;5.062;2023-03-16T00:24:53;99918.31;;;6.08;58.84
57376;BME280;44805;45.048;5.062;2023-03-16T00:27:19;99907.53;;;6.13;58.39
57376;BME280;44805;45.048;5.062;2023-03-16T00:29:46;99913.38;;;6.16;58.44
57376;BME280;44805;45.048;5.062;2023-03-16T00:32:13;99901.47;;;6.01;59.58
57376;BME280;44805;45.048;5.062;2023-03-16T00:34:40;99905.41;;;5.82;60.20
57376;BME280;44805;45.048;5.062;2023-03-16T00:37:05;99908.00;;;5.82;60.39
57376;BME280;44805;45.048;5.062;2023-03-16T00:42:33;99916.97;;;5.67;61.78
57376;BME280;44805;45.048;5.062;2023-03-16T00:44:59;99916.50;;;5.38;62.49
57376;BME280;44805;45.048;5.062;2023-03-16T00:47:26;99927.22;;;5.46;62.15
57376;BME280;44805;45.048;5.062;2023-03-16T00:49:52;99928.47;;;5.29;63.51
57376;BME280;44805;45.048;5.062;2023-03-16T00:52:18;99922.84;;;5.22;63.95
57376;BME280;44805;45.048;5.062;2023-03-16T00:54:44;99929.59;;;5.25;63.64
57376;BME280;44805;45.048;5.062;2023-03-16T00:57:11;99924.78;;;5.32;64.01
57376;BME280;44805;45.048;5.062;2023-03-16T00:59:38;99925.72;;;5.31;64.02
57376;BME280;44805;45.048;5.062;2023-03-16T01:02:04;99922.19;;;5.19;64.00
57376;BME280;44805;45.048;5.062;2023-03-16T01:04:30;99921.16;;;5.21;63.99
57376;BME280;44805;45.048;5.062;2023-03-16T01:06:56;99922.84;;;5.22;64.45
57376;BME280;44805;45.048;5.062;2023-03-16T01:09:21;99920.53;;;5.18;64.84
57376;BME280;44805;45.048;5.062;2023-03-16T01:11:47;99918.56;;;5.46;64.72
57376;BME280;44805;45.048;5.062;2023-03-16T01:14:15;99916.06;;;5.44;64.99
57376;BME280;44805;45.048;5.062;2023-03-16T01:16:41;99907.66;;;5.52;64.25
57376;BME280;44805;45.048;5.062;2023-03-16T01:19:10;99913.50;;;5.55;64.61
57376;BME280;44805;45.048;5.062;2023-03-16T01:21:36;99903.06;;;5.55;64.07
57376;BME280;44805;45.048;5.062;2023-03-16T01:24:02;99910.09;;;5.66;63.55
57376;BME280;44805;45.048;5.062;2023-03-16T01:26:28;99916.72;;;5.59;64.39
57376;BME280;44805;45.048;5.062;2023-03-16T01:28:53;99915.28;;;5.55;64.97
57376;BME280;44805;45.048;5.062;2023-03-16T01:31:19;99907.94;;;5.60;64.26
57376;BME280;44805;45.048;5.062;2023-03-16T01:33:44;99905.34;;;5.60;64.58
57376;BME280;44805;45.048;5.062;2023-03-16T01:36:10;99896.78;;;5.58;64.49
57376;BME280;44805;45.048;5.062;2023-03-16T01:38:37;99896.78;;;5.58;65.42
57376;BME280;44805;45.048;5.062;2023-03-16T01:41:02;99904.28;;;5.62;64.62
57376;BME280;44805;45.048;5.062;2023-03-16T01:43:28;99909.06;;;5.44;65.70
57376;BME280;44805;45.048;5.062;2023-03-16T01:48:20;99903.56;;;5.36;65.82
57376;BME280;44805;45.048;5.062;2023-03-16T01:50:48;99897.22;;;5.28;66.67
57376;BME280;44805;45.048;5.062;2023-03-16T01:53:16;99893.09;;;5.36;66.40
57376;BME280;44805;45.048;5.062;2023-03-16T01:55:42;99897.88;;;5.18;67.63
57376;BME280;44805;45.048;5.062;2023-03-16T01:58:07;99899.16;;;5.13;68.11
57376;BME280;44805;45.048;5.062;2023-03-16T02:00:33;99888.03;;;4.98;68.37
57376;BME280;44805;45.048;5.062;2023-03-16T02:03:00;99890.88;;;5.19;68.05
57376;BME280;44805;45.048;5.062;2023-03-16T02:05:32;99883.94;;;5.07;68.11
57376;BME280;44805;45.048;5.062;2023-03-16T02:08:01;99892.47;;;4.85;68.37
57376;BME280;44805;45.048;5.062;2023-03-16T02:10:27;99880.47;;;5.06;66.82
57376;BME280;44805;45.048;5.062;2023-03-16T02:12:53;99888.22;;;5.08;66.43
57376;BME280;44805;45.048;5.062;2023-03-16T02:15:19;99873.19;;;4.98;67.32
57376;BME280;44805;45.048;5.062;2023-03-16T02:17:45;99871.78;;;4.94;67.53
57376;BME280;44805;45.048;5.062;2023-03-16T02:22:36;99861.88;;;4.87;68.25
57376;BME280;44805;45.048;5.062;2023-03-16T02:25:03;99863.69;;;4.73;67.84
57376;BME280;44805;45.048;5.062;2023-03-16T02:27:38;99859.09;;;4.77;68.24
57376;BME280;44805;45.048;5.062;2023-03-16T02:30:10;99848.25;;;4.70;68.64
57376;BME280;44805;45.048;5.062;2023-03-16T02:32:37;99853.59;;;4.69;69.58
57376;BME280;44805;45.048;5.062;2023-03-16T02:35:03;99850.06;;;4.57;69.34
57376;BME280;44805;45.048;5.062;2023-03-16T02:37:28;99847.19;;;4.36;69.57
57376;BME280;44805;45.048;5.062;2023-03-16T02:43:36;99836.63;;;4.25;70.12
57376;BME280;44805;45.048;5.062;2023-03-16T02:45:40;99837.47;;;4.38;71.10
57376;BME280;44805;45.048;5.062;2023-03-16T02:48:15;99831.72;;;4.46;70.36
57376;BME280;44805;45.048;5.062;2023-03-16T02:50:44;99828.50;;;4.29;70.72
57376;BME280;44805;45.048;5.062;2023-03-16T02:53:14;99819.31;;;4.37;71.41
57376;BME280;44805;45.048;5.062;2023-03-16T02:55:39;99821.72;;;4.27;71.48
57376;BME280;44805;45.048;5.062;2023-03-16T02:58:05;99827.97;;;4.37;70.54
57376;BME280;44805;45.048;5.062;2023-03-16T03:00:30;99829.34;;;4.17;72.11
57376;BME280;44805;45.048;5.062;2023-03-16T03:02:56;99825.69;;;4.20;70.77
57376;BME280;44805;45.048;5.062;2023-03-16T03:05:22;99825.50;;;4.35;70.93
57376;BME280;44805;45.048;5.062;2023-03-16T03:07:48;99827.25;;;4.22;70.94
57376;BME280;44805;45.048;5.062;2023-03-16T03:10:13;99822.91;;;4.23;71.25
57376;BME280;44805;45.048;5.062;2023-03-16T03:12:38;99811.00;;;4.19;70.89
57376;BME280;44805;45.048;5.062;2023-03-16T03:15:04;99811.94;;;4.43;70.61
57376;BME280;44805;45.048;5.062;2023-03-16T03:17:29;99811.81;;;4.32;70.61
57376;BME280;44805;45.048;5.062;2023-03-16T03:19:56;99818.28;;;4.39;71.49
57376;BME280;44805;45.048;5.062;2023-03-16T03:22:21;99816.75;;;4.24;71.54
57376;BME280;44805;45.048;5.062;2023-03-16T03:24:52;99813.91;;;4.27;71.93
57376;BME280;44805;45.048;5.062;2023-03-16T03:27:18;99819.72;;;4.56;71.84
57376;BME280;44805;45.048;5.062;2023-03-16T03:29:44;99823.47;;;4.52;71.68
57376;BME280;44805;45.048;5.062;2023-03-16T03:32:09;99816.78;;;4.61;70.44
57376;BME280;44805;45.048;5.062;2023-03-16T03:34:35;99809.25;;;4.69;71.13
57376;BME280;44805;45.048;5.062;2023-03-16T03:37:01;99803.81;;;4.72;71.16
57376;BME280;44805;45.048;5.062;2023-03-16T03:39:28;99799.69;;;4.56;70.57
57376;BME280;44805;45.048;5.062;2023-03-16T03:41:53;99808.00;;;4.62;71.41
57376;BME280;44805;45.048;5.062;2023-03-16T03:44:22;99811.75;;;4.57;71.87
57376;BME280;44805;45.048;5.062;2023-03-16T03:46:48;99810.56;;;4.50;71.86
57376;BME280;44805;45.048;5.062;2023-03-16T03:49:14;99826.16;;;4.63;71.44
57376;BME280;44805;45.048;5.062;2023-03-16T03:51:39;99827.63;;;4.54;72.52
57376;BME280;44805;45.048;5.062;2023-03-16T03:54:05;99810.16;;;4.68;71.73
57376;BME280;44805;45.048;5.062;2023-03-16T03:56:31;99815.09;;;4.60;71.35
57376;BME280;44805;45.048;5.062;2023-03-16T03:58:56;99816.78;;;4.61;72.17
57376;BME280;44805;45.048;5.062;2023-03-16T04:01:21;99819.50;;;4.59;72.53
57376;BME280;44805;45.048;5.062;2023-03-16T04:03:47;99821.84;;;4.38;72.97
57376;BME280;44805;45.048;5.062;2023-03-16T04:06:12;99819.84;;;4.42;73.15
57376;BME280;44805;45.048;5.062;2023-03-16T04:08:38;99823.19;;;4.31;74.17
57376;BME280;44805;45.048;5.062;2023-03-16T04:13:52;99819.94;;;4.53;73.63
57376;BME280;44805;45.048;5.062;2023-03-16T04:16:17;99817.41;;;4.64;73.06
57376;BME280;44805;45.048;5.062;2023-03-16T04:18:43;99814.91;;;4.50;73.29
57376;BME280;44805;45.048;5.062;2023-03-16T04:21:14;99820.38;;;4.34;73.54
57376;BME280;44805;45.048;5.062;2023-03-16T04:23:40;99820.78;;;4.41;74.40
57376;BME280;44805;45.048;5.062;2023-03-16T04:26:21;99816.94;;;4.33;73.79
57376;BME280;44805;45.048;5.062;2023-03-16T04:28:49;99820.38;;;4.34;73.39
57376;BME280;44805;45.048;5.062;2023-03-16T04:31:16;99826.63;;;4.31;74.17
57376;BME280;44805;45.048;5.062;2023-03-16T04:33:42;99817.59;;;3.99;75.36
57376;BME280;44805;45.048;5.062;2023-03-16T04:36:07;99820.69;;;4.29;74.16
57376;BME280;44805;45.048;5.062;2023-03-16T04:38:33;99819.25;;;4.25;74.03
57376;BME280;44805;45.048;5.062;2023-03-16T04:47:04;99830.09;;;4.19;73.59
57376;BME280;44805;45.048;5.062;2023-03-16T04:49:29;99830.59;;;4.11;74.37
57376;BME280;44805;45.048;5.062;2023-03-16T04:51:54;99825.41;;;4.11;74.29
57376;BME280;44805;45.048;5.062;2023-03-16T04:57:24;99827.78;;;4.14;75.26
57376;BME280;44805;45.048;5.062;2023-03-16T04:59:50;99823.53;;;4.13;74.59
57376;BME280;44805;45.048;5.062;2023-03-16T05:02:15;99818.31;;;4.13;75.72
57376;BME280;44805;45.048;5.062;2023-03-16T05:04:41;99811.84;;;4.06;74.82
57376;BME280;44805;45.048;5.062;2023-03-16T05:07:07;99826.56;;;4.07;75.39
57376;BME280;44805;45.048;5.062;2023-03-16T05:15:38;99818.94;;;4.04;75.91
57376;BME280;44805;45.048;5.062;2023-03-16T05:18:03;99826.66;;;3.93;76.18
57376;BME280;44805;45.048;5.062;2023-03-16T05:20:29;99828.13;;;3.72;77.06
57376;BME280;44805;45.048;5.062;2023-03-16T05:22:55;99823.09;;;3.68;76.32
57376;BME280;44805;45.048;5.062;2023-03-16T05:25:21;99826.22;;;3.74;77.29
57376;BME280;44805;45.048;5.062;2023-03-16T05:27:48;99828.63;;;3.77;75.65
57376;BME280;44805;45.048;5.062;2023-03-16T05:30:14;99833.44;;;3.83;76.40
57376;BME280;44805;45.048;5.062;2023-03-16T05:32:40;99844.97;;;3.79;75.58
57376;BME280;44805;45.048;5.062;2023-03-16T05:35:06;99845.47;;;3.58;76.01
57376;BME280;44805;45.048;5.062;2023-03-16T05:37:31;99846.00;;;3.63;76.61
57376;BME280;44805;45.048;5.062;2023-03-16T05:39:57;99835.19;;;3.69;77.00
57376;BME280;44805;45.048;5.062;2023-03-16T05:42:23;99849.47;;;3.77;76.31
57376;BME280;44805;45.048;5.062;2023-03-16T05:44:51;99842.06;;;3.70;76.66
57376;BME280;44805;45.048;5.062;2023-03-16T05:47:16;99852.16;;;3.62;76.29
57376;BME280;44805;45.048;5.062;2023-03-16T05:49:42;99852.25;;;3.74;76.69
57376;BME280;44805;45.048;5.062;2023-03-16T05:52:07;99850.38;;;3.63;76.23
57376;BME280;44805;45.048;5.062;2023-03-16T05:54:36;99846.19;;;3.60;75.76
57376;BME280;44805;45.048;5.062;2023-03-16T05:57:01;99847.75;;;3.50;77.25
57376;BME280;44805;45.048;5.062;2023-03-16T05:59:27;99844.03;;;3.54;77.25
57376;BME280;44805;45.048;5.062;2023-03-16T06:01:52;99846.84;;;3.51;77.52
57376;BME280;44805;45.048;5.062;2023-03-16T06:04:18;99854.31;;;3.56;77.38
57376;BME280;44805;45.048;5.062;2023-03-16T06:06:43;99851.31;;;3.62;76.96
57376;BME280;44805;45.048;5.062;2023-03-16T06:09:08;99854.22;;;3.57;77.01
57376;BME280;44805;45.048;5.062;2023-03-16T06:11:36;99850.47;;;3.21;77.00
57376;BME280;44805;45.048;5.062;2023-03-16T06:14:02;99853.56;;;3.14;77.67
57376;BME280;44805;45.048;5.062;2023-03-16T06:16:27;99859.34;;;3.04;79.03
57376;BME280;44805;45.048;5.062;2023-03-16T06:18:53;99870.16;;;2.98;78.62
57376;BME280;44805;45.048;5.062;2023-03-16T06:21:20;99871.88;;;3.12;78.06
57376;BME280;44805;45.048;5.062;2023-03-16T06:23:46;99869.75;;;3.04;78.96
57376;BME280;44805;45.048;5.062;2023-03-16T06:26:11;99868.84;;;3.06;79.45
57376;BME280;44805;45.048;5.062;2023-03-16T06:28:37;99878.75;;;3.13;78.71
57376;BME280;44805;45.048;5.062;2023-03-16T06:31:02;99875.00;;;3.17;79.06
57376;BME280;44805;45.048;5.062;2023-03-16T06:33:28;99876.38;;;3.23;79.37
57376;BME280;44805;45.048;5.062;2023-03-16T06:35:53;99880.88;;;3.21;79.73
57376;BME280;44805;45.048;5.062;2023-03-16T06:38:19;99884.66;;;3.30;78.85
57376;BME280;44805;45.048;5.062;2023-03-16T06:40:44;99877.38;;;3.35;77.79
57376;BME280;44805;45.048;5.062;2023-03-16T06:43:10;99874.19;;;3.44;78.39
57376;BME280;44805;45.048;5.062;2023-03-16T06:45:35;99871.19;;;3.50;77.88
57376;BME280;44805;45.048;5.062;2023-03-16T06:48:01;99867.84;;;3.61;77.62
57376;BME280;44805;45.048;5.062;2023-03-16T06:50:26;99877.69;;;3.70;77.12
57376;BME280;44805;45.048;5.062;2023-03-16T06:52:52;99867.78;;;3.62;77.11
57376;BME280;44805;45.048;5.062;2023-03-16T06:55:17;99875.38;;;3.65;77.18
57376;BME280;44805;45.048;5.062;2023-03-16T06:57:43;99860.28;;;3.70;77.05
57376;BME280;44805;45.048;5.062;2023-03-16T07:00:09;99874.13;;;3.71;77.18
57376;BME280;44805;45.048;5.062;2023-03-16T07:02:36;99869.81;;;3.84;77.18
57376;BME280;44805;45.048;5.062;2023-03-16T07:05:03;99867.50;;;3.92;77.05
57376;BME280;44805;45.048;5.062;2023-03-16T07:07:29;99873.34;;;3.96;76.49
57376;BME280;44805;45.048;5.062;2023-03-16T07:09:55;99885.22;;;4.00;76.25
57376;BME280;44805;45.048;5.062;2023-03-16T07:12:20;99892.09;;;4.14;75.42
57376;BME280;44805;45.048;5.062;2023-03-16T07:14:46;99897.44;;;4.25;75.21
57376;BME280;44805;45.048;5.062;2023-03-16T07:17:13;99893.28;;;4.35;74.55
57376;BME280;44805;45.048;5.062;2023-03-16T07:19:38;99900.13;;;4.49;74.79
57376;BME280;44805;45.048;5.062;2023-03-16T07:22:04;99900.03;;;4.64;74.12
57376;BME280;44805;45.048;5.062;2023-03-16T07:24:29;99896.47;;;4.65;73.30
57376;BME280;44805;45.048;5.062;2023-03-16T07:27:10;99902.13;;;4.59;73.04
57376;BME280;44805;45.048;5.062;2023-03-16T07:29:35;99910.22;;;4.79;72.22
57376;BME280;44805;45.048;5.062;2023-03-16T07:32:01;99910.53;;;4.75;71.75
57376;BME280;44805;45.048;5.062;2023-03-16T07:34:26;99922.63;;;4.89;71.62
57376;BME280;44805;45.048;5.062;2023-03-16T07:36:52;99924.19;;;4.91;71.25
57376;BME280;44805;45.048;5.062;2023-03-16T07:39:17;99910.91;;;4.94;71.02
57376;BME280;44805;45.048;5.062;2023-03-16T07:44:36;99915.38;;;5.05;71.23
57376;BME280;44805;45.048;5.062;2023-03-16T07:47:01;99914.72;;;5.14;70.11
57376;BME280;44805;45.048;5.062;2023-03-16T07:49:26;99916.97;;;5.19;70.28
57376;BME280;44805;45.048;5.062;2023-03-16T07:51:52;99918.44;;;5.23;69.87
57376;BME280;44805;45.048;5.062;2023-03-16T07:54:18;99926.13;;;5.37;69.87
57376;BME280;44805;45.048;5.062;2023-03-16T07:56:43;99931.88;;;5.54;68.48
57376;BME280;44805;45.048;5.062;2023-03-16T07:59:08;99925.84;;;5.53;67.52
57376;BME280;44805;45.048;5.062;2023-03-16T08:01:34;99925.94;;;5.52;67.64
57376;BME280;44805;45.048;5.062;2023-03-16T08:04:00;99931.31;;;5.61;67.30
57376;BME280;44805;45.048;5.062;2023-03-16T08:06:26;99928.22;;;5.80;66.73
57376;BME280;44805;45.048;5.062;2023-03-16T08:08:51;99928.41;;;5.77;66.52
57376;BME280;44805;45.048;5.062;2023-03-16T08:14:05;99931.97;;;6.00;64.32
57376;BME280;44805;45.048;5.062;2023-03-16T08:16:31;99932.22;;;5.73;64.72
57376;BME280;44805;45.048;5.062;2023-03-16T08:18:56;99940.22;;;5.59;65.13
57376;BME280;44805;45.048;5.062;2023-03-16T08:21:22;99939.06;;;5.63;64.73
57376;BME280;44805;45.048;5.062;2023-03-16T08:23:48;99931.28;;;5.98;64.94
57376;BME280;44805;45.048;5.062;2023-03-16T08:26:15;99933.31;;;6.06;64.96
57376;BME280;44805;45.048;5.062;2023-03-16T08:28:43;99935.25;;;6.26;64.23
57376;BME280;44805;45.048;5.062;2023-03-16T08:31:13;99929.31;;;6.36;63.95
57376;BME280;44805;45.048;5.062;2023-03-16T08:33:42;99925.78;;;6.48;64.14
57376;BME280;44805;45.048;5.062;2023-03-16T08:36:09;99924.59;;;6.63;63.52
57376;BME280;44805;45.048;5.062;2023-03-16T08:38:35;99916.16;;;6.60;62.88
57376;BME280;44805;45.048;5.062;2023-03-16T08:41:01;99916.50;;;6.66;61.79
57376;BME280;44805;45.048;5.062;2023-03-16T08:43:26;99922.22;;;6.83;60.34
57376;BME280;44805;45.048;5.062;2023-03-16T08:45:52;99919.44;;;7.07;59.65
57376;BME280;44805;45.048;5.062;2023-03-16T08:48:18;99923.38;;;7.12;59.41
57376;BME280;44805;45.048;5.062;2023-03-16T08:50:44;99918.09;;;7.24;58.90
57376;BME280;44805;45.048;5.062;2023-03-16T08:53:10;99923.56;;;7.32;58.90
57376;BME280;44805;45.048;5.062;2023-03-16T08:55:37;99917.97;;;7.36;57.68
57376;BME280;44805;45.048;5.062;2023-03-16T08:58:04;99921.69;;;7.11;58.51
57376;BME280;44805;45.048;5.062;2023-03-16T09:00:29;99916.47;;;7.23;57.73
57376;BME280;44805;45.048;5.062;2023-03-16T09:02:55;99913.44;;;7.38;58.56
57376;BME280;44805;45.048;5.062;2023-03-16T09:05:20;99918.31;;;7.43;58.69
57376;BME280;44805;45.048;5.062;2023-03-16T09:07:47;99914.91;;;7.64;58.92
57376;BME280;44805;45.048;5.062;2023-03-16T09:10:12;99913.84;;;7.87;58.12
57376;BME280;44805;45.048;5.062;2023-03-16T09:12:42;99912.63;;;8.12;57.02
57376;BME280;44805;45.048;5.062;2023-03-16T09:15:08;99917.59;;;8.15;56.29
57376;BME280;44805;45.048;5.062;2023-03-16T09:17:34;99917.16;;;8.31;56.09
57376;BME280;44805;45.048;5.062;2023-03-16T09:20:00;99913.63;;;8.42;55.05
57376;BME280;44805;45.048;5.062;2023-03-16T09:22:26;99908.16;;;8.45;56.08
57376;BME280;44805;45.048;5.062;2023-03-16T09:24:52;99910.94;;;8.53;54.65
57376;BME280;44805;45.048;5.062;2023-03-16T09:27:17;99903.00;;;8.74;52.49
57376;BME280;44805;45.048;5.062;2023-03-16T09:29:43;99903.44;;;8.79;54.04
57376;BME280;44805;45.048;5.062;2023-03-16T09:32:09;99897.56;;;8.97;54.79
57376;BME280;44805;45.048;5.062;2023-03-16T09:34:35;99885.72;;;9.22;53.64
57376;BME280;44805;45.048;5.062;2023-03-16T09:37:00;99888.09;;;9.34;52.38
57376;BME280;44805;45.048;5.062;2023-03-16T09:39:26;99885.19;;;9.38;53.52
57376;BME280;44805;45.048;5.062;2023-03-16T09:45:03;99876.22;;;9.50;52.58
57376;BME280;44805;45.048;5.062;2023-03-16T09:47:31;99872.59;;;9.51;53.03
57376;BME280;44805;45.048;5.062;2023-03-16T09:49:59;99873.19;;;9.64;50.73
57376;BME280;44805;45.048;5.062;2023-03-16T09:57:30;99870.09;;;9.98;51.71
57376;BME280;44805;45.048;5.062;2023-03-16T10:00:15;99870.41;;;10.22;51.57
57376;BME280;44805;45.048;5.062;2023-03-16T10:05:22;99856.56;;;10.30;50.26
57376;BME280;44805;45.048;5.062;2023-03-16T10:15:41;99836.75;;;10.91;50.66
57376;BME280;44805;45.048;5.062;2023-03-16T10:18:09;99843.09;;;11.16;50.14
57376;BME280;44805;45.048;5.062;2023-03-16T10:20:37;99836.13;;;11.25;49.15
57376;BME280;44805;45.048;5.062;2023-03-16T10:23:15;99837.47;;;11.29;48.79
57376;BME280;44805;45.048;5.062;2023-03-16T10:25:48;99833.63;;;11.41;47.78
57376;BME280;44805;45.048;5.062;2023-03-16T10:31:20;99812.47;;;11.33;47.76
57376;BME280;44805;45.048;5.062;2023-03-16T10:33:45;99810.31;;;11.55;46.24
57376;BME280;44805;45.048;5.062;2023-03-16T10:44:02;99798.31;;;12.81;43.42
57376;BME280;44805;45.048;5.062;2023-03-16T10:46:37;99789.63;;;13.21;42.21
57376;BME280;44805;45.048;5.062;2023-03-16T10:49:03;99785.22;;;13.38;40.24
57376;BME280;44805;45.048;5.062;2023-03-16T10:51:35;99788.16;;;13.60;39.11
57376;BME280;44805;45.048;5.062;2023-03-16T10:54:35;99787.81;;;13.79;40.13
57376;BME280;44805;45.048;5.062;2023-03-16T10:56:54;99787.94;;;14.02;39.25
57376;BME280;44805;45.048;5.062;2023-03-16T11:01:49;99774.59;;;14.27;37.41
57376;BME280;44805;45.048;5.062;2023-03-16T11:04:17;99778.72;;;14.38;36.71
57376;BME280;44805;45.048;5.062;2023-03-16T11:07:01;99780.81;;;14.50;36.97
57376;BME280;44805;45.048;5.062;2023-03-16T11:09:33;99762.91;;;14.61;36.98
57376;BME280;44805;45.048;5.062;2023-03-16T11:11:59;99773.31;;;14.93;37.80
57376;BME280;44805;45.048;5.062;2023-03-16T11:14:26;99768.13;;;15.00;36.84
57376;BME280;44805;45.048;5.062;2023-03-16T11:19:25;99776.06;;;15.23;35.13
57376;BME280;44805;45.048;5.062;2023-03-16T11:27:03;99750.97;;;15.11;34.03
57376;BME280;44805;45.048;5.062;2023-03-16T11:32:15;99753.44;;;15.35;34.85
57376;BME280;44805;45.048;5.062;2023-03-16T11:34:42;99754.72;;;15.39;34.15
57376;BME280;44805;45.048;5.062;2023-03-16T11:37:29;99751.38;;;15.60;34.04
57376;BME280;44805;45.048;5.062;2023-03-16T11:42:27;99758.78;;;15.88;32.96
57376;BME280;44805;45.048;5.062;2023-03-16T11:44:54;99764.63;;;15.98;33.52
57376;BME280;44805;45.048;5.062;2023-03-16T11:50:14;99772.59;;;15.83;31.27
57376;BME280;44805;45.048;5.062;2023-03-16T11:52:51;99762.06;;;15.90;30.81
57376;BME280;44805;45.048;5.062;2023-03-16T12:05:51;99736.69;;;16.02;30.13
57376;BME280;44805;45.048;5.062;2023-03-16T12:18:46;99745.03;;;16.14;29.29
57376;BME280;44805;45.048;5.062;2023-03-16T12:21:23;99734.56;;;16.13;28.63
57376;BME280;44805;45.048;5.062;2023-03-16T12:23:51;99737.06;;;16.14;28.62
57376;BME280;44805;45.048;5.062;2023-03-16T12:26:18;99732.84;;;16.05;28.25
57376;BME280;44805;45.048;5.062;2023-03-16T12:28:45;99736.88;;;16.16;28.55
57376;BME280;44805;45.048;5.062;2023-03-16T12:31:16;99730.72;;;16.15;29.23
57376;BME280;44805;45.048;5.062;2023-03-16T12:38:46;99713.00;;;16.52;28.61
57376;BME280;44805;45.048;5.062;2023-03-16T12:48:44;99695.13;;;16.46;28.24
57376;BME280;44805;45.048;5.062;2023-03-16T12:51:10;99691.59;;;16.39;28.34
57376;BME280;44805;45.048;5.062;2023-03-16T12:56:18;99677.78;;;16.50;28.02
57376;BME280;44805;45.048;5.062;2023-03-16T12:58:47;99666.03;;;16.59;28.38
57376;BME280;44805;45.048;5.062;2023-03-16T13:01:14;99656.91;;;16.68;29.25
57376;BME280;44805;45.048;5.062;2023-03-16T13:03:41;99673.13;;;16.74;28.53
57376;BME280;44805;45.048;5.062;2023-03-16T13:06:06;99677.19;;;16.69;28.59
57376;BME280;44805;45.048;5.062;2023-03-16T13:08:45;99668.56;;;16.67;28.33
57376;BME280;44805;45.048;5.062;2023-03-16T13:11:11;99664.44;;;16.80;28.27
57376;BME280;44805;45.048;5.062;2023-03-16T13:16:43;99653.91;;;16.71;29.04
57376;BME280;44805;45.048;5.062;2023-03-16T13:21:44;99656.25;;;16.81;29.20
57376;BME280;44805;45.048;5.062;2023-03-16T13:29:27;99650.56;;;16.84;28.38
57376;BME280;44805;45.048;5.062;2023-03-16T13:31:55;99648.59;;;16.71;29.15
57376;BME280;44805;45.048;5.062;2023-03-16T13:34:37;99648.09;;;16.83;29.04
57376;BME280;44805;45.048;5.062;2023-03-16T13:37:11;99630.03;;;17.00;29.41
57376;BME280;44805;45.048;5.062;2023-03-16T13:39:38;99637.94;;;16.93;28.87
57376;BME280;44805;45.048;5.062;2023-03-16T13:44:33;99631.88;;;16.78;28.61
57376;BME280;44805;45.048;5.062;2023-03-16T13:47:03;99619.59;;;16.77;28.85
57376;BME280;44805;45.048;5.062;2023-03-16T13:49:29;99629.75;;;16.73;28.67
57376;BME280;44805;45.048;5.062;2023-03-16T13:51:54;99625.59;;;16.64;29.10
57376;BME280;44805;45.048;5.062;2023-03-16T14:02:54;99627.50;;;16.91;28.41
57376;BME280;44805;45.048;5.062;2023-03-16T14:05:24;99631.47;;;17.02;29.70
57376;BME280;44805;45.048;5.062;2023-03-16T14:07:51;99625.38;;;17.08;29.71
57376;BME280;44805;45.048;5.062;2023-03-16T14:10:17;99639.31;;;17.10;29.50
57376;BME280;44805;45.048;5.062;2023-03-16T14:12:50;99633.41;;;17.15;29.09
57376;BME280;44805;45.048;5.062;2023-03-16T14:15:16;99630.53;;;17.17;28.04
57376;BME280;44805;45.048;5.062;2023-03-16T14:17:42;99621.25;;;17.06;27.85
57376;BME280;44805;45.048;5.062;2023-03-16T14:20:08;99622.91;;;17.07;28.40
57376;BME280;44805;45.048;5.062;2023-03-16T14:22:41;99622.81;;;17.22;29.26
57376;BME280;44805;45.048;5.062;2023-03-16T14:25:09;99621.06;;;17.35;29.06
57376;BME280;44805;45.048;5.062;2023-03-16T14:30:38;99630.38;;;17.25;29.48
57376;BME280;44805;45.048;5.062;2023-03-16T14:35:55;99621.41;;;17.26;28.18
57376;BME280;44805;45.048;5.062;2023-03-16T14:40:53;99621.25;;;17.34;28.72
57376;BME280;44805;45.048;5.062;2023-03-16T14:43:30;99622.28;;;17.33;29.03
57376;BME280;44805;45.048;5.062;2023-03-16T14:45:57;99616.16;;;17.39;29.91
57376;BME280;44805;45.048;5.062;2023-03-16T14:48:23;99622.59;;;17.51;29.64
57376;BME280;44805;45.048;5.062;2023-03-16T14:50:59;99619.81;;;17.31;29.02
57376;BME280;44805;45.048;5.062;2023-03-16T14:53:25;99604.25;;;17.35;28.99
57376;BME280;44805;45.048;5.062;2023-03-16T14:55:53;99611.75;;;17.25;29.43
57376;BME280;44805;45.048;5.062;2023-03-16T14:58:18;99611.63;;;17.33;29.21
57376;BME280;44805;45.048;5.062;2023-03-16T15:00:43;99611.53;;;17.54;29.25
57376;BME280;44805;45.048;5.062;2023-03-16T15:03:10;99606.31;;;17.33;29.49
57376;BME280;44805;45.048;5.062;2023-03-16T15:05:38;99597.59;;;17.52;30.04
57376;BME280;44805;45.048;5.062;2023-03-16T15:08:04;99606.22;;;17.54;29.96
57376;BME280;44805;45.048;5.062;2023-03-16T15:10:31;99610.94;;;17.59;29.89
57376;BME280;44805;45.048;5.062;2023-03-16T15:13:06;99598.75;;;17.78;29.80
57376;BME280;44805;45.048;5.062;2023-03-16T15:15:40;99596.44;;;17.62;30.37
57376;BME280;44805;45.048;5.062;2023-03-16T15:18:06;99600.22;;;17.81;30.43
57376;BME280;44805;45.048;5.062;2023-03-16T15:20:35;99601.78;;;17.68;30.53
57376;BME280;44805;45.048;5.062;2023-03-16T15:23:03;99589.94;;;17.77;30.79
57376;BME280;44805;45.048;5.062;2023-03-16T15:25:39;99595.25;;;17.71;30.91
57376;BME280;44805;45.048;5.062;2023-03-16T15:28:10;99595.41;;;17.63;30.38
57376;BME280;44805;45.048;5.062;2023-03-16T15:30:36;99593.72;;;17.55;30.57
57376;BME280;44805;45.048;5.062;2023-03-16T15:33:02;99592.28;;;17.52;30.67
57376;BME280;44805;45.048;5.062;2023-03-16T15:35:28;99589.84;;;17.57;30.12